Time;durP1;ratioP1;P1;durP2;ratioP2;P2;SDS_P1;SDS_P2;PMS_P1;PMS_P2;Temp;Humidity;BMP_temperature;BMP_pressure;BME280_temperature;BME280_humidity;BME280_pressure;Samples;Min_cycle;Max_cycle;Signal;HPM_P1;HPM_P2
2022/09/28 00:01:41;;;;;;;;;;;;;;;27.85;35.38;99546.41;5016862;28;849;-50
2022/09/28 00:04:06;;;;;;;;;;;;;;;27.84;35.69;99534.75;5017405;28;1898;-48
2022/09/28 00:06:31;;;;;;;;;;;;;;;27.91;35.14;99540.13;5017918;28;1182;-48
2022/09/28 00:08:57;;;;;;;;;;;;;;;27.83;34.93;99540.38;5017086;28;1222;-46
2022/09/28 00:11:22;;;;;;;;;;;;;;;27.81;34.80;99528.97;5015736;28;1196;-48
2022/09/28 00:13:48;;;;;;;;;;;;;;;27.71;34.96;99526.75;5016815;28;1002;-44
2022/09/28 00:16:15;;;;;;;;;;;;;;;27.67;35.38;99541.69;5017265;28;1100;-46
2022/09/28 00:18:40;;;;;;;;;;;;;;;27.62;35.43;99534.25;5016941;28;1202;-48
2022/09/28 00:21:07;;;;;;;;;;;;;;;27.68;35.51;99521.72;5017242;28;1175;-44
2022/09/28 00:23:32;;;;;;;;;;;;;;;27.55;35.66;99514.53;5016817;28;1168;-48
2022/09/28 00:26:04;;;;;;;;;;;;;;;27.52;35.63;99526.59;5016379;28;1906;-47
2022/09/28 00:28:30;;;;;;;;;;;;;;;27.66;35.32;99540.03;5017132;28;1092;-48
2022/09/28 00:30:55;;;;;;;;;;;;;;;27.70;35.26;99547.53;5016775;28;1202;-47
2022/09/28 00:33:21;;;;;;;;;;;;;;;27.63;35.18;99558.34;5016754;28;1230;-48
2022/09/28 00:35:46;;;;;;;;;;;;;;;27.71;35.15;99545.66;5017076;28;1202;-46
2022/09/28 00:38:15;;;;;;;;;;;;;;;27.72;35.10;99540.03;5014875;28;1329;-48
2022/09/28 00:40:40;;;;;;;;;;;;;;;27.66;34.97;99548.16;5016885;28;1226;-50
2022/09/28 00:43:15;;;;;;;;;;;;;;;27.57;35.06;99539.47;5016728;28;1116;-47
2022/09/28 00:45:41;;;;;;;;;;;;;;;27.59;35.17;99545.47;5016618;28;1914;-45
2022/09/28 00:48:06;;;;;;;;;;;;;;;27.60;34.90;99556.06;5016709;28;1198;-50
2022/09/28 00:50:32;;;;;;;;;;;;;;;27.66;35.30;99551.66;5015228;28;1222;-48
2022/09/28 00:53:03;;;;;;;;;;;;;;;27.80;34.70;99557.88;5015109;28;1093;-46
2022/09/28 00:55:41;;;;;;;;;;;;;;;27.63;35.09;99563.75;5016746;28;1148;-51
2022/09/28 00:58:07;;;;;;;;;;;;;;;27.71;35.46;99559.16;5016615;28;1159;-46
2022/09/28 01:00:32;;;;;;;;;;;;;;;27.79;35.00;99555.38;5016676;28;1186;-48
2022/09/28 01:02:58;;;;;;;;;;;;;;;27.83;34.90;99570.94;5016075;28;902;-48
2022/09/28 01:05:23;;;;;;;;;;;;;;;27.90;35.19;99573.59;5016440;28;1894;-50
2022/09/28 01:07:49;;;;;;;;;;;;;;;27.95;34.68;99573.78;5016226;28;1140;-47
2022/09/28 01:10:14;;;;;;;;;;;;;;;27.88;35.12;99575.69;5016242;28;1147;-48
2022/09/28 01:12:39;;;;;;;;;;;;;;;27.81;34.68;99574.91;5016205;28;1143;-49
2022/09/28 01:15:05;;;;;;;;;;;;;;;27.70;34.61;99571.00;5015455;28;958;-52
2022/09/28 01:17:33;;;;;;;;;;;;;;;27.79;34.91;99571.59;5016295;28;1175;-46
2022/09/28 01:20:17;;;;;;;;;;;;;;;27.78;34.56;99567.25;5016368;28;1199;-45
2022/09/28 01:22:56;;;;;;;;;;;;;;;27.66;34.71;99565.16;5015785;28;1191;-49
2022/09/28 01:25:41;;;;;;;;;;;;;;;27.73;34.82;99560.59;5014458;28;1898;-44
2022/09/28 01:28:06;;;;;;;;;;;;;;;27.91;35.19;99572.53;5014680;28;1201;-49
2022/09/28 01:30:38;;;;;;;;;;;;;;;27.88;34.41;99575.69;5015955;28;1144;-48
2022/09/28 01:33:07;;;;;;;;;;;;;;;27.85;34.78;99574.25;5016353;28;1132;-46
2022/09/28 01:35:38;;;;;;;;;;;;;;;27.84;34.86;99574.47;5000911;28;1467;-48
2022/09/28 01:38:09;;;;;;;;;;;;;;;27.81;34.65;99564.91;5018534;28;1121;-48
2022/09/28 01:40:34;;;;;;;;;;;;;;;27.78;34.52;99567.25;5019890;28;1280;-49
2022/09/28 01:43:07;;;;;;;;;;;;;;;27.85;34.20;99568.03;5008787;28;1188;-47
2022/09/28 01:45:36;;;;;;;;;;;;;;;27.71;34.83;99567.28;5015996;28;1952;-50
2022/09/28 01:48:02;;;;;;;;;;;;;;;27.72;34.97;99558.13;5018998;28;1156;-49
2022/09/28 01:50:28;;;;;;;;;;;;;;;27.80;35.19;99557.03;5018652;28;1116;-48
2022/09/28 01:52:55;;;;;;;;;;;;;;;27.79;35.01;99558.09;5018745;28;1310;-48
2022/09/28 01:55:36;;;;;;;;;;;;;;;27.60;35.11;99557.94;5018649;28;1192;-49
2022/09/28 01:58:20;;;;;;;;;;;;;;;27.43;36.66;99557.59;5018980;28;1218;-47
2022/09/28 02:00:46;;;;;;;;;;;;;;;27.42;35.51;99554.06;5019475;28;1144;-50
2022/09/28 02:03:16;;;;;;;;;;;;;;;27.56;35.68;99557.53;5018406;28;1208;-47
2022/09/28 02:05:44;;;;;;;;;;;;;;;27.58;35.05;99562.72;5019814;28;1905;-49
2022/09/28 02:08:20;;;;;;;;;;;;;;;27.39;35.67;99551.81;5018313;28;1125;-53
2022/09/28 02:10:50;;;;;;;;;;;;;;;27.58;34.66;99557.31;5018766;28;1218;-51
2022/09/28 02:13:18;;;;;;;;;;;;;;;27.46;35.16;99551.78;5018668;28;1199;-44
2022/09/28 02:15:43;;;;;;;;;;;;;;;27.43;35.00;99538.69;5009070;28;1073;-51
2022/09/28 02:18:09;;;;;;;;;;;;;;;27.49;35.08;99549.47;5019655;28;1222;-43
2022/09/28 02:20:34;;;;;;;;;;;;;;;27.72;34.59;99547.31;5019786;28;1139;-49
2022/09/28 02:23:00;;;;;;;;;;;;;;;27.44;34.82;99552.00;5018223;28;1089;-54
2022/09/28 02:25:25;;;;;;;;;;;;;;;27.42;34.90;99548.69;5017708;28;1906;-44
2022/09/28 02:27:53;;;;;;;;;;;;;;;27.46;34.82;99546.38;5019389;28;1559;-45
2022/09/28 02:30:19;;;;;;;;;;;;;;;27.45;34.77;99545.53;5018878;28;1199;-44
2022/09/28 02:32:45;;;;;;;;;;;;;;;27.45;34.60;99547.41;5013169;28;1245;-54
2022/09/28 02:35:11;;;;;;;;;;;;;;;27.58;34.29;99555.44;5018288;28;2260;-48
2022/09/28 02:37:37;;;;;;;;;;;;;;;27.50;34.65;99550.28;5018017;28;2064;-43
2022/09/28 02:40:07;;;;;;;;;;;;;;;27.58;34.61;99560.00;5018965;28;1778;-43
2022/09/28 02:42:34;;;;;;;;;;;;;;;27.53;34.58;99554.47;5016139;28;2161;-47
2022/09/28 02:45:08;;;;;;;;;;;;;;;27.46;34.51;99557.19;5017058;28;2119;-48
2022/09/28 02:47:42;;;;;;;;;;;;;;;27.39;34.39;99555.31;5009682;28;1930;-46
2022/09/28 02:50:32;;;;;;;;;;;;;;;27.45;34.29;99556.34;5014503;28;2211;-45
2022/09/28 02:53:07;;;;;;;;;;;;;;;27.41;34.47;99560.50;5004584;28;1069;-45
2022/09/28 02:55:42;;;;;;;;;;;;;;;27.46;33.80;99562.59;5018181;28;1259;-48
2022/09/28 02:58:26;;;;;;;;;;;;;;;27.44;33.89;99562.81;5017359;28;1101;-46
2022/09/28 03:01:13;;;;;;;;;;;;;;;27.36;34.08;99577.34;5015795;28;1384;-52
2022/09/28 03:03:43;;;;;;;;;;;;;;;27.43;34.17;99571.94;5013938;28;879;-45
2022/09/28 03:06:10;;;;;;;;;;;;;;;27.43;34.64;99576.50;5002977;28;1973;-46
2022/09/28 03:08:42;;;;;;;;;;;;;;;27.07;35.80;99570.59;5009149;28;1156;-47
2022/09/28 03:11:19;;;;;;;;;;;;;;;27.04;35.93;99562.91;5016968;28;1192;-45
2022/09/28 03:13:44;;;;;;;;;;;;;;;27.13;36.22;99567.88;5018369;28;1053;-52
2022/09/28 03:16:10;;;;;;;;;;;;;;;27.25;36.58;99576.16;5015395;28;1159;-50
2022/09/28 03:18:36;;;;;;;;;;;;;;;27.23;36.56;99572.84;5017571;28;1933;-48
2022/09/28 03:21:01;;;;;;;;;;;;;;;27.44;35.91;99564.66;5018097;28;1127;-44
2022/09/28 03:23:26;;;;;;;;;;;;;;;27.30;36.50;99572.81;4997822;28;1168;-48
2022/09/28 03:25:52;;;;;;;;;;;;;;;27.25;36.85;99581.56;4998379;28;1909;-48
2022/09/28 03:28:17;;;;;;;;;;;;;;;27.26;36.97;99583.19;5016878;28;1215;-46
2022/09/28 03:30:42;;;;;;;;;;;;;;;27.23;36.67;99589.03;5013564;28;1195;-48
2022/09/28 03:33:07;;;;;;;;;;;;;;;26.58;37.02;99484.53;4997492;28;1243;-49
2022/09/28 03:35:33;;;;;;;;;;;;;;;27.24;36.56;99587.16;4997781;28;1215;-46
2022/09/28 03:37:58;;;;;;;;;;;;;;;27.25;36.43;99586.13;5007370;28;1172;-48
2022/09/28 03:40:23;;;;;;;;;;;;;;;27.23;36.76;99578.22;5017241;28;1160;-47
2022/09/28 03:42:49;;;;;;;;;;;;;;;27.49;35.74;99579.16;5017440;28;1104;-50
2022/09/28 03:45:14;;;;;;;;;;;;;;;27.37;36.36;99583.59;5017921;28;1914;-48
2022/09/28 03:47:43;;;;;;;;;;;;;;;26.69;37.60;99582.88;5017616;28;1119;-46
2022/09/28 03:50:09;;;;;;;;;;;;;;;26.51;37.78;99584.31;5016753;28;2197;-41
2022/09/28 03:52:34;;;;;;;;;;;;;;;25.98;38.60;99592.09;5017092;28;1381;-44
2022/09/28 03:54:59;;;;;;;;;;;;;;;25.91;38.79;99593.94;5017536;28;1127;-54
2022/09/28 03:57:24;;;;;;;;;;;;;;;26.06;38.79;99595.66;5017224;28;1135;-54
2022/09/28 03:59:50;;;;;;;;;;;;;;;26.13;38.76;99599.19;5015763;28;1228;-46
2022/09/28 04:02:15;;;;;;;;;;;;;;;26.13;38.43;99594.63;5016875;28;1132;-48
2022/09/28 04:04:40;;;;;;;;;;;;;;;26.16;38.08;99593.38;5016640;28;1898;-40
2022/09/28 04:07:05;;;;;;;;;;;;;;;26.16;37.33;99588.81;5017184;28;1119;-41
2022/09/28 04:09:31;;;;;;;;;;;;;;;26.31;37.43;99595.06;5017127;28;1084;-48
2022/09/28 04:11:56;;;;;;;;;;;;;;;26.33;36.81;99590.31;5017156;28;1107;-44
2022/09/28 04:14:22;;;;;;;;;;;;;;;26.26;36.72;99595.66;5016712;28;1187;-48
2022/09/28 04:16:47;;;;;;;;;;;;;;;26.24;36.99;99587.78;5015716;28;1176;-44
2022/09/28 04:19:13;;;;;;;;;;;;;;;26.26;36.77;99584.88;5016388;28;2088;-47
2022/09/28 04:21:43;;;;;;;;;;;;;;;26.19;36.21;99586.75;5097073;27;1341;-31
2022/09/28 04:24:09;;;;;;;;;;;;;;;26.18;36.41;99585.91;5094024;28;1134;-31
2022/09/28 04:26:34;;;;;;;;;;;;;;;26.19;36.40;99587.59;5092167;28;1134;-33
2022/09/28 04:29:15;;;;;;;;;;;;;;;25.90;36.64;99589.59;5093877;28;1142;-31
2022/09/28 04:31:49;;;;;;;;;;;;;;;25.60;37.02;99597.97;5094284;28;1083;-32
2022/09/28 04:34:19;;;;;;;;;;;;;;;25.50;37.41;99596.47;5075364;28;1134;-32
2022/09/28 04:36:44;;;;;;;;;;;;;;;25.42;37.52;99592.06;5093346;28;1189;-32
2022/09/28 04:39:10;;;;;;;;;;;;;;;25.46;37.55;99602.47;5086867;28;1087;-36
2022/09/28 04:41:35;;;;;;;;;;;;;;;25.49;37.53;99594.81;5086825;28;1099;-35
2022/09/28 04:44:01;;;;;;;;;;;;;;;25.47;37.17;99601.44;5093666;28;1153;-36
2022/09/28 04:46:26;;;;;;;;;;;;;;;25.26;34.81;99605.84;5094014;28;1103;-46
2022/09/28 04:48:51;;;;;;;;;;;;;;;25.19;37.23;99609.34;5092142;28;1193;-43
2022/09/28 04:51:17;;;;;;;;;;;;;;;25.38;37.78;99614.22;5091894;28;1910;-51
2022/09/28 04:53:42;;;;;;;;;;;;;;;25.28;38.18;99603.81;5092494;28;1158;-45
2022/09/28 04:56:09;;;;;;;;;;;;;;;25.23;38.87;99609.78;5092524;28;1099;-45
2022/09/28 04:58:34;;;;;;;;;;;;;;;25.20;38.89;99615.56;5067096;28;1190;-47
2022/09/28 05:01:00;;;;;;;;;;;;;;;25.28;38.68;99618.09;5087178;28;1159;-43
2022/09/28 05:03:25;;;;;;;;;;;;;;;25.19;39.27;99619.31;5092679;28;912;-45
2022/09/28 05:05:50;;;;;;;;;;;;;;;25.16;39.39;99623.22;5093227;28;1174;-44
2022/09/28 05:08:16;;;;;;;;;;;;;;;25.15;39.58;99621.56;5093098;28;1161;-47
2022/09/28 05:10:41;;;;;;;;;;;;;;;25.26;39.40;99628.22;5092578;28;1894;-47
2022/09/28 05:13:07;;;;;;;;;;;;;;;25.12;39.39;99630.03;5092401;28;1142;-51
2022/09/28 05:15:33;;;;;;;;;;;;;;;25.20;39.44;99639.78;5080157;28;989;-51
2022/09/28 05:17:58;;;;;;;;;;;;;;;25.19;39.58;99640.84;5092852;28;1134;-48
2022/09/28 05:20:23;;;;;;;;;;;;;;;25.15;40.07;99642.25;5088619;28;1240;-54
2022/09/28 05:22:49;;;;;;;;;;;;;;;25.28;39.16;99633.41;5082235;28;1151;-49
2022/09/28 05:25:14;;;;;;;;;;;;;;;25.28;38.63;99638.81;5093046;28;1127;-51
2022/09/28 05:27:39;;;;;;;;;;;;;;;25.42;32.79;99643.22;5084523;28;1397;-47
2022/09/28 05:30:05;;;;;;;;;;;;;;;25.49;36.00;99645.97;5083039;28;1938;-54
2022/09/28 05:32:30;;;;;;;;;;;;;;;25.38;38.18;99652.75;5080980;28;1179;-49
2022/09/28 05:34:56;;;;;;;;;;;;;;;25.80;38.04;99657.34;5077292;28;1520;-53
2022/09/28 05:37:21;;;;;;;;;;;;;;;26.12;36.98;99660.34;5068902;28;1072;-56
2022/09/28 05:39:46;;;;;;;;;;;;;;;26.35;36.84;99667.28;5066413;28;1512;-48
2022/09/28 05:42:12;;;;;;;;;;;;;;;26.52;36.91;99674.97;5078719;28;985;-55
2022/09/28 05:44:37;;;;;;;;;;;;;;;26.70;37.29;99674.38;5078836;28;1178;-51
2022/09/28 05:47:02;;;;;;;;;;;;;;;26.93;37.34;99675.81;5078956;28;1166;-54
2022/09/28 05:49:30;;;;;;;;;;;;;;;26.82;37.96;99679.16;5078827;28;2216;-51
2022/09/28 05:51:55;;;;;;;;;;;;;;;26.73;37.99;99676.66;5070732;28;1126;-53
2022/09/28 05:54:21;;;;;;;;;;;;;;;26.86;37.60;99681.22;5067408;28;1221;-56
2022/09/28 05:56:46;;;;;;;;;;;;;;;26.96;37.55;99680.00;5070843;28;1318;-53
2022/09/28 05:59:12;;;;;;;;;;;;;;;27.00;37.92;99675.81;5074660;28;1122;-52
2022/09/28 06:01:37;;;;;;;;;;;;;;;26.98;38.02;99670.63;5068329;28;1516;-53
2022/09/28 06:04:02;;;;;;;;;;;;;;;27.00;37.61;99682.06;5071122;28;1069;-50
2022/09/28 06:06:28;;;;;;;;;;;;;;;26.86;37.96;99678.53;5073259;28;1504;-56
2022/09/28 06:08:53;;;;;;;;;;;;;;;26.61;38.19;99683.72;5071369;28;1179;-51
2022/09/28 06:11:18;;;;;;;;;;;;;;;26.32;38.07;99683.00;5065962;28;1897;-56
2022/09/28 06:13:44;;;;;;;;;;;;;;;26.55;37.88;99676.44;5056638;28;1104;-49
2022/09/28 06:16:13;;;;;;;;;;;;;;;26.53;38.49;99682.03;5067046;28;860;-56
2022/09/28 06:18:38;;;;;;;;;;;;;;;26.52;38.95;99692.00;5077698;28;1194;-56
2022/09/28 06:21:04;;;;;;;;;;;;;;;26.66;38.00;99686.59;5077039;28;1261;-56
2022/09/28 06:23:30;;;;;;;;;;;;;;;26.64;38.33;99694.09;5074976;28;1210;-53
2022/09/28 06:25:57;;;;;;;;;;;;;;;26.59;38.68;99692.00;5057934;28;962;-54
2022/09/28 06:28:22;;;;;;;;;;;;;;;26.67;38.45;99692.84;5066103;28;1104;-55
2022/09/28 06:30:48;;;;;;;;;;;;;;;26.71;38.43;99697.59;5077300;28;1910;-54
2022/09/28 06:33:13;;;;;;;;;;;;;;;26.73;38.53;99700.09;5065500;28;1181;-53
2022/09/28 06:35:39;;;;;;;;;;;;;;;26.74;38.77;99691.00;5057603;28;1139;-56
2022/09/28 06:38:04;;;;;;;;;;;;;;;26.84;38.49;99701.38;5058205;28;1100;-52
2022/09/28 06:40:30;;;;;;;;;;;;;;;26.80;38.09;99700.94;5049816;28;1128;-56
2022/09/28 06:42:58;;;;;;;;;;;;;;;26.84;38.31;99696.78;5076980;28;1131;-53
2022/09/28 06:45:24;;;;;;;;;;;;;;;26.90;38.68;99695.13;5077466;28;1299;-52
2022/09/28 06:47:57;;;;;;;;;;;;;;;26.95;38.44;99689.13;5077438;28;1111;-51
2022/09/28 06:50:23;;;;;;;;;;;;;;;27.06;37.65;99691.22;5077779;28;1959;-55
2022/09/28 06:52:49;;;;;;;;;;;;;;;27.05;38.31;99689.56;5072170;28;1127;-55
2022/09/28 06:55:14;;;;;;;;;;;;;;;27.04;38.31;99696.00;5077271;28;1146;-56
2022/09/28 06:57:39;;;;;;;;;;;;;;;27.09;38.39;99687.28;5073301;28;1275;-57
2022/09/28 07:00:05;;;;;;;;;;;;;;;26.97;38.08;99698.69;5076879;28;1290;-55
2022/09/28 07:02:30;;;;;;;;;;;;;;;26.94;37.87;99693.69;5064140;28;1197;-56
2022/09/28 07:04:56;;;;;;;;;;;;;;;27.04;38.71;99700.56;5055691;28;1088;-55
2022/09/28 07:07:21;;;;;;;;;;;;;;;27.09;38.08;99693.50;5057569;28;1178;-52
2022/09/28 07:09:46;;;;;;;;;;;;;;;27.21;38.00;99696.41;5057190;28;1902;-53
2022/09/28 07:12:12;;;;;;;;;;;;;;;27.23;37.79;99694.31;5066116;28;1163;-56
2022/09/28 07:14:38;;;;;;;;;;;;;;;27.24;37.57;99695.16;5062628;28;1147;-56
2022/09/28 07:17:06;;;;;;;;;;;;;;;27.26;37.70;99693.91;5068671;28;976;-54
2022/09/28 07:19:32;;;;;;;;;;;;;;;27.31;37.67;99697.84;5076692;28;1084;-52
2022/09/28 07:21:57;;;;;;;;;;;;;;;27.35;37.17;99704.47;5058180;28;1158;-58
2022/09/28 07:24:23;;;;;;;;;;;;;;;27.37;37.08;99700.53;5067774;28;1186;-57
2022/09/28 07:26:48;;;;;;;;;;;;;;;27.40;37.22;99691.19;5059463;28;1195;-56
2022/09/28 07:29:13;;;;;;;;;;;;;;;27.46;37.14;99690.34;5068763;28;860;-54
2022/09/28 07:31:39;;;;;;;;;;;;;;;27.49;36.90;99689.09;5056401;28;1969;-54
2022/09/28 07:34:04;;;;;;;;;;;;;;;27.50;37.52;99690.75;5060124;28;1394;-55
2022/09/28 07:36:30;;;;;;;;;;;;;;;27.64;37.60;99696.97;5057893;28;988;-56
2022/09/28 07:38:55;;;;;;;;;;;;;;;27.53;37.39;99687.63;5061429;28;1158;-61
2022/09/28 07:41:31;;;;;;;;;;;;;;;27.54;37.04;99677.66;5063462;28;877;-56
2022/09/28 07:43:57;;;;;;;;;;;;;;;27.73;36.63;99681.34;5070733;28;1099;-50
2022/09/28 07:46:23;;;;;;;;;;;;;;;25.09;37.54;99684.22;5076101;28;1051;-47
2022/09/28 07:48:50;;;;;;;;;;;;;;;23.26;37.85;99681.22;5076357;28;1111;-46
2022/09/28 07:51:18;;;;;;;;;;;;;;;21.53;39.08;99670.38;5072177;28;1902;-48
2022/09/28 07:53:43;;;;;;;;;;;;;;;20.68;39.84;99673.28;5071391;28;901;-49
2022/09/28 07:56:09;;;;;;;;;;;;;;;19.36;41.70;99672.63;5076247;28;1130;-43
2022/09/28 07:58:34;;;;;;;;;;;;;;;18.99;42.22;99669.19;5076205;28;1185;-45
2022/09/28 08:01:04;;;;;;;;;;;;;;;18.13;42.91;99677.53;5076032;28;1206;-48
2022/09/28 08:03:29;;;;;;;;;;;;;;;17.68;42.68;99671.13;5056598;28;1128;-48
2022/09/28 08:05:58;;;;;;;;;;;;;;;17.55;43.39;99663.50;5067360;28;1262;-46
2022/09/28 08:08:23;;;;;;;;;;;;;;;17.87;43.90;99655.09;5068964;28;1390;-47
2022/09/28 08:10:51;;;;;;;;;;;;;;;19.38;45.94;99651.13;5066436;28;1941;-50
2022/09/28 08:13:17;;;;;;;;;;;;;;;19.79;47.42;99653.16;5072572;28;1325;-48
2022/09/28 08:15:42;;;;;;;;;;;;;;;20.16;48.01;99646.66;5071909;28;1366;-49
2022/09/28 08:18:07;;;;;;;;;;;;;;;20.05;49.15;99647.78;5071521;28;1254;-50
2022/09/28 08:23:16;;;;;;;;;;;;;;;20.28;49.23;99638.31;5059916;28;1279;-58
2022/09/28 08:25:48;;;;;;;;;;;;;;;20.17;50.28;99644.81;5071279;28;1202;-49
2022/09/28 08:28:16;;;;;;;;;;;;;;;20.09;51.20;99640.28;5072970;28;1211;-53
2022/09/28 08:30:42;;;;;;;;;;;;;;;20.12;51.75;99639.13;5071969;28;1956;-54
2022/09/28 08:33:07;;;;;;;;;;;;;;;20.09;51.95;99645.63;5060798;28;1179;-53
2022/09/28 08:35:32;;;;;;;;;;;;;;;19.93;52.50;99643.72;5059627;28;1180;-46
2022/09/28 08:37:58;;;;;;;;;;;;;;;19.90;52.46;99647.53;5067214;28;1250;-50
2022/09/28 08:40:24;;;;;;;;;;;;;;;19.78;53.28;99649.69;5064855;28;1174;-50
2022/09/28 08:42:51;;;;;;;;;;;;;;;21.80;47.60;99657.59;5075979;28;1225;-50
2022/09/28 08:45:21;;;;;;;;;;;;;;;23.36;44.36;99660.34;5058803;28;1135;-47
2022/09/28 08:50:52;;;;;;;;;;;;;;;24.35;42.12;99657.47;5069194;28;1952;-49
2022/09/28 08:53:27;;;;;;;;;;;;;;;24.77;41.18;99657.66;5063390;28;845;-51
2022/09/28 08:55:53;;;;;;;;;;;;;;;24.96;40.70;99659.91;5075709;28;1134;-48
2022/09/28 08:58:23;;;;;;;;;;;;;;;25.06;40.70;99653.16;5070503;28;1222;-48
2022/09/28 09:00:48;;;;;;;;;;;;;;;25.37;40.64;99656.47;5046190;28;1203;-51
2022/09/28 09:03:16;;;;;;;;;;;;;;;25.51;39.18;99653.84;5055823;28;1111;-50
2022/09/28 09:06:01;;;;;;;;;;;;;;;25.61;39.36;99653.50;5066279;28;837;-55
2022/09/28 09:08:27;;;;;;;;;;;;;;;25.68;39.00;99655.22;5073880;28;1257;-51
2022/09/28 09:10:52;;;;;;;;;;;;;;;25.89;38.85;99652.59;5074298;28;1968;-47
2022/09/28 09:13:36;;;;;;;;;;;;;;;25.97;38.32;99662.38;5047845;28;1163;-51
2022/09/28 09:16:17;;;;;;;;;;;;;;;26.04;38.28;99664.03;5072012;28;1052;-47
2022/09/28 09:18:48;;;;;;;;;;;;;;;26.25;37.10;99662.25;5073199;28;1213;-42
2022/09/28 09:21:14;;;;;;;;;;;;;;;26.29;37.10;99655.41;5061886;28;1154;-44
2022/09/28 09:23:39;;;;;;;;;;;;;;;25.84;37.14;99653.19;5057661;28;1127;-43
2022/09/28 09:26:10;;;;;;;;;;;;;;;25.65;37.45;99663.69;5059364;28;1111;-47
2022/09/28 09:28:43;;;;;;;;;;;;;;;26.05;36.57;99654.09;5047971;28;1100;-44
2022/09/28 09:31:14;;;;;;;;;;;;;;;26.01;36.83;99644.75;5040672;28;1914;-46
2022/09/28 09:33:52;;;;;;;;;;;;;;;25.96;36.60;99652.63;5072417;28;1149;-47
2022/09/28 09:36:20;;;;;;;;;;;;;;;25.88;36.63;99645.53;5059208;28;1156;-46
2022/09/28 09:38:46;;;;;;;;;;;;;;;25.86;36.49;99653.81;5058896;28;1144;-46
2022/09/28 09:41:31;;;;;;;;;;;;;;;25.99;36.48;99654.91;5062479;28;1179;-46
2022/09/28 09:43:58;;;;;;;;;;;;;;;25.90;36.41;99654.25;5058375;28;1095;-47
2022/09/28 09:46:37;;;;;;;;;;;;;;;25.80;36.26;99654.63;5059080;28;1135;-46
2022/09/28 09:49:19;;;;;;;;;;;;;;;25.41;37.33;99646.97;5040838;28;1128;-46
2022/09/28 09:52:03;;;;;;;;;;;;;;;25.26;37.33;99639.00;5070303;28;1897;-46
2022/09/28 09:54:33;;;;;;;;;;;;;;;25.35;37.05;99650.44;5058594;28;1172;-46
2022/09/28 09:57:02;;;;;;;;;;;;;;;25.30;37.13;99642.13;5040711;28;1234;-48
2022/09/28 09:59:32;;;;;;;;;;;;;;;25.41;36.97;99651.50;5058733;28;1115;-48
2022/09/28 10:01:59;;;;;;;;;;;;;;;25.52;36.54;99653.66;5040668;28;1143;-47
2022/09/28 10:04:39;;;;;;;;;;;;;;;25.41;37.03;99646.13;5040878;28;1128;-46
2022/09/28 10:07:04;;;;;;;;;;;;;;;25.88;36.29;99649.06;5074229;28;1432;-47
2022/09/28 10:09:32;;;;;;;;;;;;;;;26.54;34.96;99654.03;5070166;28;1905;-47
2022/09/28 10:11:57;;;;;;;;;;;;;;;26.84;34.86;99647.41;5040922;28;1465;-57
2022/09/28 10:14:23;;;;;;;;;;;;;;;26.83;34.89;99661.91;5065358;28;1187;-53
2022/09/28 10:16:48;;;;;;;;;;;;;;;26.33;35.13;99655.03;5059296;28;1202;-55
2022/09/28 10:19:14;;;;;;;;;;;;;;;26.75;35.88;99660.25;5077363;28;1170;-49
2022/09/28 10:21:40;;;;;;;;;;;;;;;27.08;35.15;99655.91;5075261;28;1497;-49
2022/09/28 10:24:07;;;;;;;;;;;;;;;27.12;35.09;99658.00;5058987;28;1445;-48
2022/09/28 10:26:43;;;;;;;;;;;;;;;27.22;34.92;99656.75;5054456;28;1377;-43
2022/09/28 10:29:13;;;;;;;;;;;;;;;27.24;35.18;99652.78;5059355;28;1548;-46
2022/09/28 10:31:41;;;;;;;;;;;;;;;27.21;35.71;99655.09;5040799;28;1965;-49
2022/09/28 10:34:07;;;;;;;;;;;;;;;27.33;36.73;99657.94;5078071;28;1099;-47
2022/09/28 10:36:37;;;;;;;;;;;;;;;27.13;36.08;99653.41;5078036;28;1174;-51
2022/09/28 10:39:05;;;;;;;;;;;;;;;27.10;36.45;99651.16;5051927;28;1293;-47
2022/09/28 10:41:31;;;;;;;;;;;;;;;27.29;36.84;99652.16;5055507;28;1012;-47
2022/09/28 10:44:06;;;;;;;;;;;;;;;27.33;36.23;99650.69;5072306;28;1211;-50
2022/09/28 10:46:31;;;;;;;;;;;;;;;27.07;36.59;99644.31;5055551;28;1449;-44
2022/09/28 10:49:00;;;;;;;;;;;;;;;27.28;35.94;99644.28;5057607;28;1552;-46
2022/09/28 10:51:42;;;;;;;;;;;;;;;27.32;35.90;99638.25;5067106;28;1898;-51
2022/09/28 10:54:12;;;;;;;;;;;;;;;27.23;36.52;99637.63;5070396;28;1203;-50
2022/09/28 10:56:37;;;;;;;;;;;;;;;27.67;36.48;99642.50;5073888;28;1219;-53
2022/09/28 10:59:21;;;;;;;;;;;;;;;27.87;36.61;99638.91;5054649;28;1461;-44
2022/09/28 11:01:46;;;;;;;;;;;;;;;27.75;36.48;99644.16;5076806;28;1164;-43
2022/09/28 11:04:13;;;;;;;;;;;;;;;27.78;36.57;99635.59;5077279;28;981;-49
2022/09/28 11:06:38;;;;;;;;;;;;;;;27.98;36.24;99645.50;5048758;28;1151;-47
2022/09/28 11:09:19;;;;;;;;;;;;;;;27.90;35.05;99633.06;5053246;28;1143;-52
2022/09/28 11:11:45;;;;;;;;;;;;;;;28.14;36.56;99635.22;5070280;28;1897;-45
2022/09/28 11:14:43;;;;;;;;;;;;;;;28.37;36.90;99629.28;5070045;28;1397;-47
2022/09/28 11:17:14;;;;;;;;;;;;;;;27.97;34.68;99633.03;5067359;28;1526;-52
2022/09/28 11:19:40;;;;;;;;;;;;;;;27.82;34.16;99626.03;5063828;28;1223;-54
2022/09/28 11:22:19;;;;;;;;;;;;;;;27.67;33.34;99622.75;5077191;28;1118;-51
2022/09/28 11:24:44;;;;;;;;;;;;;;;27.64;32.93;99615.91;5077353;28;1106;-55
2022/09/28 11:27:10;;;;;;;;;;;;;;;27.71;32.82;99615.91;5068794;28;1329;-51
2022/09/28 11:29:35;;;;;;;;;;;;;;;28.03;33.37;99620.53;5050888;28;1906;-57
2022/09/28 11:32:02;;;;;;;;;;;;;;;27.95;33.24;99625.13;5074620;28;1108;-59
2022/09/28 11:34:31;;;;;;;;;;;;;;;27.82;33.10;99628.75;5075102;28;1095;-58
2022/09/28 11:37:15;;;;;;;;;;;;;;;27.93;33.42;99629.09;5075168;28;1191;-52
2022/09/28 11:39:59;;;;;;;;;;;;;;;27.92;34.17;99622.03;5075832;28;1103;-54
2022/09/28 11:42:50;;;;;;;;;;;;;;;27.97;33.87;99625.75;5056192;28;1088;-56
2022/09/28 11:45:19;;;;;;;;;;;;;;;28.05;34.25;99616.56;5051146;28;1575;-56
2022/09/28 11:47:46;;;;;;;;;;;;;;;27.95;34.61;99614.31;5056578;28;1272;-57
2022/09/28 11:50:30;;;;;;;;;;;;;;;27.71;34.49;99614.03;5047523;28;1890;-54
2022/09/28 11:53:01;;;;;;;;;;;;;;;27.84;34.67;99606.91;5058460;28;1146;-55
2022/09/28 11:55:29;;;;;;;;;;;;;;;27.85;34.71;99603.16;5070255;28;1561;-46
2022/09/28 11:58:00;;;;;;;;;;;;;;;27.82;34.59;99606.28;5076583;28;1217;-48
2022/09/28 12:00:25;;;;;;;;;;;;;;;27.69;35.16;99613.44;5049285;28;1262;-54
2022/09/28 12:02:53;;;;;;;;;;;;;;;28.07;35.10;99606.38;5038664;28;1251;-58
2022/09/28 12:05:23;;;;;;;;;;;;;;;28.27;34.45;99613.50;5038223;28;1469;-58
2022/09/28 12:08:00;;;;;;;;;;;;;;;28.23;34.96;99598.75;5054603;28;933;-51
2022/09/28 12:10:34;;;;;;;;;;;;;;;28.09;34.89;99612.34;5075854;28;1954;-51
2022/09/28 12:13:02;;;;;;;;;;;;;;;28.14;34.61;99609.03;5064717;28;1135;-52
2022/09/28 12:15:28;;;;;;;;;;;;;;;28.14;34.59;99619.00;5059599;28;1456;-49
2022/09/28 12:17:55;;;;;;;;;;;;;;;28.04;34.53;99614.91;5058269;28;1100;-49
2022/09/28 12:20:24;;;;;;;;;;;;;;;28.56;33.54;99621.25;5053925;28;1171;-47
2022/09/28 12:22:59;;;;;;;;;;;;;;;28.33;32.69;99615.38;5055206;28;1147;-50
2022/09/28 12:25:24;;;;;;;;;;;;;;;28.67;32.83;99619.69;5055503;28;1154;-48
2022/09/28 12:27:54;;;;;;;;;;;;;;;28.64;32.87;99603.91;5054574;28;1135;-49
2022/09/28 12:30:20;;;;;;;;;;;;;;;28.64;32.66;99614.72;5055292;28;1969;-49
2022/09/28 12:32:52;;;;;;;;;;;;;;;28.42;32.44;99613.22;5056260;28;1181;-46
2022/09/28 12:35:18;;;;;;;;;;;;;;;28.47;31.04;99613.41;5054676;28;1202;-49
2022/09/28 12:37:59;;;;;;;;;;;;;;;28.62;32.15;99616.81;5055979;28;1126;-51
2022/09/28 12:40:34;;;;;;;;;;;;;;;28.66;30.92;99618.03;5041877;28;2806;-48
2022/09/28 12:43:18;;;;;;;;;;;;;;;28.48;29.51;99617.75;5044441;28;1995;-49
2022/09/28 12:46:19;;;;;;;;;;;;;;;28.85;31.04;99611.63;5042737;28;1882;-52
2022/09/28 12:48:47;;;;;;;;;;;;;;;25.32;34.97;99599.72;4990531;28;1798;-56
2022/09/28 12:51:31;;;;;;;;;;;;;;;22.86;36.94;99591.09;5038110;28;2133;-55
2022/09/28 12:54:00;;;;;;;;;;;;;;;22.73;41.03;99572.94;5055225;28;2158;-57
2022/09/28 12:56:36;;;;;;;;;;;;;;;22.75;42.72;99590.50;5039184;28;1112;-54
2022/09/28 12:59:15;;;;;;;;;;;;;;;22.54;45.17;99587.69;5038084;28;1513;-59
2022/09/28 13:01:50;;;;;;;;;;;;;;;22.42;46.58;99584.59;5038359;28;1147;-60
2022/09/28 13:04:24;;;;;;;;;;;;;;;22.36;47.81;99586.97;5052858;28;1112;-59
2022/09/28 13:06:52;;;;;;;;;;;;;;;22.32;48.66;99591.00;5043848;28;1127;-56
2022/09/28 13:09:19;;;;;;;;;;;;;;;22.19;49.43;99588.09;5058294;28;1103;-53
2022/09/28 13:11:57;;;;;;;;;;;;;;;23.02;49.48;99590.13;5059987;28;1893;-56